createdAt,value
2023-04-08T00:01:04.053Z,12.10
2023-04-08T00:03:32.468Z,11.30
2023-04-08T00:06:02.502Z,11.43
2023-04-08T00:08:30.597Z,11.00
2023-04-08T00:10:58.474Z,11.40
2023-04-08T00:13:26.582Z,11.03
2023-04-08T00:15:54.481Z,11.10
2023-04-08T00:18:23.613Z,11.10
2023-04-08T00:20:51.445Z,11.13
2023-04-08T00:23:21.273Z,11.70
2023-04-08T00:25:49.141Z,10.50
2023-04-08T00:28:16.899Z,10.70
2023-04-08T00:30:46.288Z,10.87
2023-04-08T00:33:14.217Z,11.53
2023-04-08T00:35:43.408Z,11.33
2023-04-08T00:38:11.419Z,10.97
2023-04-08T00:40:40.087Z,10.23
2023-04-08T00:43:07.890Z,10.27
2023-04-08T00:45:35.821Z,11.03
2023-04-08T00:48:05.988Z,10.53
2023-04-08T00:50:33.872Z,11.17
2023-04-08T00:53:02.968Z,11.20
2023-04-08T00:55:30.831Z,10.63
2023-04-08T00:57:59.595Z,11.53
2023-04-08T01:00:31.457Z,11.30
2023-04-08T01:03:13.200Z,10.97
2023-04-08T01:05:56.302Z,10.87
2023-04-08T01:08:29.735Z,11.07
2023-04-08T01:11:02.154Z,10.33
2023-04-08T01:13:36.906Z,10.43
2023-04-08T01:16:06.237Z,10.93
2023-04-08T01:18:37.118Z,10.97
2023-04-08T01:21:06.911Z,10.97
2023-04-08T01:23:50.302Z,11.47
2023-04-08T01:26:25.541Z,11.13
2023-04-08T01:28:57.585Z,10.18
2023-04-08T01:31:27.389Z,10.80
2023-04-08T01:33:57.627Z,10.67
2023-04-08T01:36:26.837Z,11.47
2023-04-08T01:38:55.392Z,11.27
2023-04-08T01:41:24.938Z,11.00
2023-04-08T01:43:54.916Z,11.17
2023-04-08T01:46:23.028Z,11.27
2023-04-08T01:48:52.914Z,11.80
2023-04-08T01:51:22.552Z,11.73
2023-04-08T01:53:51.552Z,11.47
2023-04-08T01:56:26.012Z,11.70
2023-04-08T01:58:58.642Z,11.70
2023-04-08T02:01:31.068Z,11.13
2023-04-08T02:04:01.508Z,12.17
2023-04-08T02:06:31.253Z,11.60
2023-04-08T02:09:01.663Z,13.57
2023-04-08T02:11:32.100Z,12.10
2023-04-08T02:14:00.260Z,12.07
2023-04-08T02:16:37.463Z,10.10
2023-04-08T02:19:14.435Z,10.27
2023-04-08T02:21:50.612Z,8.40
2023-04-08T02:24:21.272Z,8.93
2023-04-08T02:26:52.329Z,8.80
2023-04-08T02:29:20.557Z,8.67
2023-04-08T02:31:51.431Z,9.30
2023-04-08T02:34:22.325Z,8.37
2023-04-08T02:36:51.806Z,8.67
2023-04-08T02:39:19.733Z,8.03
2023-04-08T02:41:51.639Z,8.10
2023-04-08T02:44:22.568Z,8.83
2023-04-08T02:46:50.779Z,8.43
2023-04-08T02:49:18.520Z,8.23
2023-04-08T02:51:46.228Z,8.43
2023-04-08T02:54:14.126Z,9.20
2023-04-08T02:56:42.004Z,8.40
2023-04-08T02:59:11.242Z,9.03
2023-04-08T03:01:39.282Z,9.40
2023-04-08T03:04:07.140Z,8.77
2023-04-08T03:06:34.915Z,9.83
2023-04-08T03:09:02.747Z,9.70
2023-04-08T03:11:30.802Z,9.37
2023-04-08T03:13:58.546Z,8.93
2023-04-08T03:16:27.900Z,9.30
2023-04-08T03:18:56.024Z,10.07
2023-04-08T03:21:24.525Z,9.57
2023-04-08T03:23:52.384Z,9.53
2023-04-08T03:26:20.891Z,10.10
2023-04-08T03:28:48.929Z,9.70
2023-04-08T03:31:17.134Z,9.80
2023-04-08T03:33:46.333Z,8.93
2023-04-08T03:36:14.094Z,8.70
2023-04-08T03:38:41.896Z,8.10
2023-04-08T03:41:09.839Z,8.50
2023-04-08T03:43:38.086Z,8.17
2023-04-08T03:46:06.210Z,7.83
2023-04-08T03:48:34.136Z,7.20
2023-04-08T03:51:03.522Z,7.40
2023-04-08T03:53:31.356Z,7.27
2023-04-08T03:55:59.721Z,6.60
2023-04-08T03:58:27.386Z,7.00
2023-04-08T04:00:55.544Z,7.17
2023-04-08T04:03:23.706Z,7.07
2023-04-08T04:05:51.628Z,7.30
2023-04-08T04:08:20.864Z,7.07
2023-04-08T04:10:48.592Z,7.47
2023-04-08T04:13:16.470Z,6.97
2023-04-08T04:15:44.262Z,6.97
2023-04-08T04:18:12.104Z,7.17
2023-04-08T04:20:41.409Z,7.37
2023-04-08T04:23:09.608Z,6.20
2023-04-08T04:25:41.562Z,6.60
2023-04-08T04:28:10.043Z,6.53
2023-04-08T04:30:38.394Z,6.63
2023-04-08T04:33:06.762Z,7.23
2023-04-08T04:35:34.933Z,8.50
2023-04-08T04:38:02.913Z,7.37
2023-04-08T04:40:30.752Z,6.73
2023-04-08T04:42:59.916Z,6.57
2023-04-08T04:45:27.704Z,6.03
2023-04-08T04:47:55.701Z,6.63
2023-04-08T04:50:23.632Z,6.50
2023-04-08T04:52:51.450Z,6.40
2023-04-08T04:55:19.513Z,6.67
2023-04-08T04:57:47.245Z,6.27
2023-04-08T05:00:17.123Z,6.07
2023-04-08T05:02:45.283Z,6.57
2023-04-08T05:05:13.358Z,6.07
2023-04-08T05:07:41.232Z,6.33
2023-04-08T05:10:10.976Z,6.27
2023-04-08T05:12:39.016Z,6.17
2023-04-08T05:15:08.106Z,6.00
2023-04-08T05:17:37.269Z,6.30
2023-04-08T05:20:06.612Z,6.83
2023-04-08T05:22:34.540Z,5.90
2023-04-08T05:25:02.337Z,6.77
2023-04-08T05:27:30.567Z,6.37
2023-04-08T05:29:58.422Z,6.60
2023-04-08T05:32:26.227Z,5.93
2023-04-08T05:34:55.557Z,6.07
2023-04-08T05:37:23.300Z,6.17
2023-04-08T05:39:51.251Z,5.90
2023-04-08T05:42:19.171Z,5.77
2023-04-08T05:44:47.082Z,6.37
2023-04-08T05:47:14.840Z,6.97
2023-04-08T05:49:42.725Z,6.87
2023-04-08T05:52:11.867Z,6.30
2023-04-08T05:54:43.291Z,6.00
2023-04-08T05:57:11.173Z,6.47
2023-04-08T05:59:38.873Z,5.70
2023-04-08T06:02:07.443Z,6.63
2023-04-08T06:04:35.693Z,6.60
2023-04-08T06:07:04.517Z,6.03
2023-04-08T06:09:37.369Z,6.10
2023-04-08T06:12:05.732Z,5.90
2023-04-08T06:14:33.517Z,6.80
2023-04-08T06:17:01.440Z,6.73
2023-04-08T06:19:29.593Z,7.40
2023-04-08T06:21:58.970Z,6.30
2023-04-08T06:24:29.267Z,6.57
2023-04-08T06:26:58.418Z,7.03
2023-04-08T06:29:26.172Z,7.07
2023-04-08T06:31:54.284Z,8.20
2023-04-08T06:34:22.062Z,7.03
2023-04-08T06:36:50.298Z,7.03
2023-04-08T06:39:19.442Z,8.10
2023-04-08T06:41:47.426Z,7.63
2023-04-08T06:44:42.800Z,7.17
2023-04-08T06:47:10.779Z,6.43
2023-04-08T06:49:38.512Z,5.70
2023-04-08T06:52:07.068Z,7.50
2023-04-08T06:54:34.886Z,7.70
2023-04-08T06:57:04.140Z,6.67
2023-04-08T06:59:31.991Z,5.73
2023-04-08T07:02:01.443Z,7.13
2023-04-08T07:04:29.399Z,7.60
2023-04-08T07:06:57.773Z,7.17
2023-04-08T07:09:25.701Z,7.23
2023-04-08T07:11:53.728Z,6.33
2023-04-08T07:14:21.811Z,6.50
2023-04-08T07:16:49.559Z,6.73
2023-04-08T07:19:18.719Z,6.80
2023-04-08T07:24:14.612Z,6.97
2023-04-08T07:26:42.666Z,6.87
2023-04-08T07:29:10.838Z,7.40
2023-04-08T07:31:38.602Z,7.60
2023-04-08T07:34:06.374Z,7.87
2023-04-08T07:36:35.708Z,8.20
2023-04-08T07:39:03.753Z,8.30
2023-04-08T07:41:31.537Z,7.53
2023-04-08T07:43:59.326Z,8.43
2023-04-08T07:46:27.185Z,7.97
2023-04-08T07:48:55.059Z,7.57
2023-04-08T07:51:23.078Z,7.67
2023-04-08T07:53:52.188Z,8.03
2023-04-08T07:56:19.993Z,8.20
2023-04-08T07:58:48.472Z,6.97
2023-04-08T08:01:19.972Z,8.70
2023-04-08T08:03:48.651Z,8.20
2023-04-08T08:06:17.397Z,8.50
2023-04-08T08:08:45.568Z,8.87
2023-04-08T08:11:14.923Z,8.50
2023-04-08T08:13:42.875Z,7.77
2023-04-08T08:16:12.021Z,8.03
2023-04-08T08:18:41.395Z,8.20
2023-04-08T08:21:09.690Z,8.60
2023-04-08T08:23:37.823Z,7.30
2023-04-08T08:26:10.097Z,8.00
2023-04-08T08:28:40.039Z,8.33
2023-04-08T08:31:08.317Z,8.60
2023-04-08T08:33:36.248Z,8.53
2023-04-08T08:36:05.525Z,8.90
2023-04-08T08:38:33.632Z,8.73
2023-04-08T08:41:03.819Z,9.40
2023-04-08T08:43:35.590Z,9.77
2023-04-08T08:46:06.609Z,9.03
2023-04-08T08:48:36.769Z,9.23
2023-04-08T08:51:09.633Z,9.40
2023-04-08T08:53:38.070Z,8.90
2023-04-08T08:58:41.695Z,9.13
2023-04-08T09:01:35.777Z,8.87
2023-04-08T09:04:15.775Z,7.53
2023-04-08T09:06:45.316Z,9.23
2023-04-08T09:09:13.984Z,10.03
2023-04-08T09:11:44.029Z,9.70
2023-04-08T09:14:21.609Z,10.20
2023-04-08T09:16:53.081Z,9.50
2023-04-08T09:19:21.141Z,10.13
2023-04-08T09:22:07.812Z,9.53
2023-04-08T09:24:37.345Z,9.87
2023-04-08T09:27:06.123Z,9.00
2023-04-08T09:29:37.285Z,9.00
2023-04-08T09:32:08.515Z,8.90
2023-04-08T09:34:36.668Z,9.60
2023-04-08T09:37:04.513Z,9.63
2023-04-08T09:39:32.318Z,9.90
2023-04-08T09:42:08.222Z,9.40
2023-04-08T09:44:37.902Z,10.03
2023-04-08T09:47:18.249Z,8.33
2023-04-08T09:49:55.101Z,10.27
2023-04-08T09:52:33.442Z,10.23
2023-04-08T09:55:04.592Z,10.07
2023-04-08T09:57:41.876Z,10.90
2023-04-08T10:00:13.983Z,10.13
2023-04-08T10:02:57.134Z,9.10
2023-04-08T10:05:27.189Z,8.73
2023-04-08T10:07:57.775Z,10.23
2023-04-08T10:10:27.168Z,9.90
2023-04-08T10:12:55.755Z,9.30
2023-04-08T10:15:26.758Z,9.60
2023-04-08T10:18:32.900Z,9.50
2023-04-08T10:21:01.095Z,9.80
2023-04-08T10:23:56.276Z,9.90
2023-04-08T10:26:34.419Z,10.07
2023-04-08T10:29:33.098Z,11.20
2023-04-08T10:32:01.903Z,11.13
2023-04-08T10:34:31.211Z,11.40
2023-04-08T10:36:59.518Z,10.53
2023-04-08T10:39:27.488Z,10.17
2023-04-08T10:41:56.225Z,10.40
2023-04-08T10:44:26.834Z,10.30
2023-04-08T10:46:55.564Z,10.37
2023-04-08T10:49:34.845Z,9.93
2023-04-08T10:52:08.570Z,9.20
2023-04-08T10:54:38.447Z,10.40
2023-04-08T10:57:07.375Z,10.53
2023-04-08T10:59:36.813Z,10.07
2023-04-08T11:02:05.002Z,9.73
2023-04-08T11:04:34.418Z,9.63
2023-04-08T11:07:06.169Z,10.63
2023-04-08T11:09:34.756Z,10.87
2023-04-08T11:12:03.628Z,9.67
2023-04-08T11:14:33.168Z,9.60
2023-04-08T11:17:01.615Z,9.90
2023-04-08T11:19:29.554Z,9.20
2023-04-08T11:21:59.114Z,9.73
2023-04-08T11:24:28.139Z,9.25
2023-04-08T11:26:57.111Z,9.93
2023-04-08T11:29:25.046Z,10.07
2023-04-08T11:31:53.063Z,11.33
2023-04-08T11:34:23.971Z,11.10
2023-04-08T11:36:52.521Z,9.53
2023-04-08T11:39:24.247Z,10.50
2023-04-08T11:41:53.250Z,10.88
2023-04-08T11:44:31.519Z,11.55
2023-04-08T11:46:59.639Z,10.30
2023-04-08T11:49:27.607Z,10.88
2023-04-08T11:51:59.076Z,10.50
2023-04-08T11:54:29.819Z,11.05
2023-04-08T11:56:59.050Z,10.55
2023-04-08T11:59:28.984Z,11.27
2023-04-08T12:01:57.939Z,10.13
2023-04-08T12:04:26.250Z,12.07
2023-04-08T12:06:55.007Z,11.55
2023-04-08T12:09:24.129Z,11.60
2023-04-08T12:11:53.193Z,10.88
2023-04-08T12:14:21.971Z,11.38
2023-04-08T12:16:49.789Z,11.35
2023-04-08T12:19:17.633Z,12.15
2023-04-08T12:21:45.367Z,13.10
2023-04-08T12:24:13.183Z,11.23
2023-04-08T12:26:40.901Z,10.68
2023-04-08T12:29:11.650Z,10.82
2023-04-08T12:31:39.532Z,11.90
2023-04-08T12:34:07.401Z,12.77
2023-04-08T12:36:35.979Z,12.73
2023-04-08T12:39:03.990Z,8.75
2023-04-08T12:41:31.697Z,11.90
2023-04-08T12:43:59.582Z,12.43
2023-04-08T12:46:28.796Z,12.82
2023-04-08T12:49:03.370Z,13.15
2023-04-08T12:51:32.558Z,14.25
2023-04-08T12:54:01.219Z,13.77
2023-04-08T12:56:29.155Z,13.73
2023-04-08T12:58:57.650Z,14.50
2023-04-08T13:01:25.623Z,15.30
2023-04-08T13:03:55.608Z,16.00
2023-04-08T13:06:23.608Z,16.37
2023-04-08T13:08:51.645Z,16.00
2023-04-08T13:11:19.660Z,15.60
2023-04-08T13:13:47.601Z,15.82
2023-04-08T13:16:15.847Z,14.53
2023-04-08T13:18:43.679Z,18.10
2023-04-08T13:21:12.971Z,17.48
2023-04-08T13:23:41.005Z,17.98
2023-04-08T13:26:08.820Z,18.58
2023-04-08T13:28:53.872Z,18.55
2023-04-08T13:31:24.738Z,18.48
2023-04-08T13:33:54.550Z,17.90
2023-04-08T13:36:26.759Z,17.90
2023-04-08T13:38:54.868Z,18.13
2023-04-08T13:41:23.105Z,17.43
2023-04-08T13:43:51.091Z,17.70
2023-04-08T13:46:19.069Z,18.37
2023-04-08T13:48:46.873Z,19.13
2023-04-08T13:51:14.632Z,19.63
2023-04-08T13:53:43.730Z,18.70
2023-04-08T13:56:11.568Z,18.38
2023-04-08T13:58:39.369Z,18.63
2023-04-08T14:01:07.456Z,16.92
2023-04-08T14:03:35.206Z,16.90
2023-04-08T14:06:03.245Z,18.23
2023-04-08T14:08:31.138Z,18.57
2023-04-08T14:11:00.378Z,19.00
2023-04-08T14:13:28.194Z,17.67
2023-04-08T14:15:58.273Z,17.50
2023-04-08T14:18:26.362Z,17.23
2023-04-08T14:20:54.058Z,17.70
2023-04-08T14:23:22.034Z,17.57
2023-04-08T14:25:49.742Z,19.07
2023-04-08T14:28:18.860Z,18.60
2023-04-08T14:30:47.545Z,21.95
2023-04-08T14:33:15.272Z,26.03
2023-04-08T14:35:43.265Z,19.63
2023-04-08T14:38:11.355Z,21.67
2023-04-08T14:40:39.196Z,20.60
2023-04-08T14:43:07.316Z,19.70
2023-04-08T14:45:36.567Z,19.10
2023-04-08T14:48:04.531Z,19.03
2023-04-08T14:50:32.651Z,19.47
2023-04-08T14:53:01.086Z,18.07
2023-04-08T14:55:29.926Z,18.53
2023-04-08T14:57:59.803Z,19.67
2023-04-08T15:00:28.963Z,19.90
2023-04-08T15:02:58.294Z,21.90
2023-04-08T15:05:26.462Z,21.63
2023-04-08T15:07:54.430Z,19.87
2023-04-08T15:10:22.315Z,20.37
2023-04-08T15:12:50.151Z,19.93
2023-04-08T15:15:17.878Z,20.40
2023-04-08T15:17:45.728Z,21.87
2023-04-08T15:20:15.194Z,21.63
2023-04-08T15:22:43.202Z,21.20
2023-04-08T15:25:11.102Z,21.17
2023-04-08T15:27:39.247Z,21.00
2023-04-08T15:30:08.165Z,22.67
2023-04-08T15:32:35.994Z,22.27
2023-04-08T15:35:04.351Z,21.27
2023-04-08T15:37:33.613Z,20.80
2023-04-08T15:40:01.462Z,21.13
2023-04-08T15:42:29.359Z,22.35
2023-04-08T15:44:57.139Z,21.33
2023-04-08T15:47:24.996Z,25.10
2023-04-08T15:49:53.281Z,22.90
2023-04-08T15:52:21.235Z,22.97
2023-04-08T15:54:50.390Z,21.90
2023-04-08T15:57:18.192Z,21.57
2023-04-08T15:59:46.006Z,23.37
2023-04-08T16:02:14.009Z,21.37
2023-04-08T16:04:42.870Z,21.30
2023-04-08T16:07:11.090Z,22.63
2023-04-08T16:09:38.849Z,21.60
2023-04-08T16:12:08.661Z,21.33
2023-04-08T16:14:36.526Z,21.47
2023-04-08T16:17:04.697Z,20.33
2023-04-08T16:19:32.439Z,20.23
2023-04-08T16:22:00.373Z,20.50
2023-04-08T16:24:28.249Z,20.80
2023-04-08T16:26:57.792Z,18.60
2023-04-08T16:29:27.598Z,20.17
2023-04-08T16:31:55.439Z,19.37
2023-04-08T16:34:23.277Z,19.30
2023-04-08T16:36:51.678Z,19.70
2023-04-08T16:39:19.621Z,20.77
2023-04-08T16:41:47.714Z,23.00
2023-04-08T16:44:16.000Z,20.83
2023-04-08T16:46:45.400Z,19.73
2023-04-08T16:49:15.009Z,19.03
2023-04-08T16:51:44.457Z,19.37
2023-04-08T16:54:12.239Z,18.90
2023-04-08T16:56:44.418Z,19.37
2023-04-08T16:59:12.526Z,20.10
2023-04-08T17:01:40.777Z,21.07
2023-04-08T17:04:10.646Z,20.33
2023-04-08T17:06:40.706Z,22.83
2023-04-08T17:09:09.083Z,22.23
2023-04-08T17:11:36.898Z,25.97
2023-04-08T17:14:05.700Z,22.37
2023-04-08T17:16:33.526Z,21.37
2023-04-08T17:19:01.375Z,22.70
2023-04-08T17:21:31.042Z,25.37
2023-04-08T17:23:58.936Z,22.37
2023-04-08T17:26:28.136Z,20.63
2023-04-08T17:28:56.412Z,20.03
2023-04-08T17:31:24.214Z,20.73
2023-04-08T17:33:52.226Z,18.93
2023-04-08T17:36:20.110Z,20.43
2023-04-08T17:38:49.380Z,18.87
2023-04-08T17:41:29.727Z,19.23
2023-04-08T17:44:05.884Z,20.30
2023-04-08T17:46:33.701Z,19.93
2023-04-08T17:49:01.848Z,19.87
2023-04-08T17:51:30.916Z,20.23
2023-04-08T17:54:00.325Z,20.73
2023-04-08T17:56:28.268Z,21.27
2023-04-08T17:58:56.216Z,18.57
2023-04-08T18:01:24.092Z,18.70
2023-04-08T18:03:52.245Z,19.70
2023-04-08T18:06:20.187Z,20.70
2023-04-08T18:08:48.445Z,21.70
2023-04-08T18:11:17.529Z,22.07
2023-04-08T18:13:46.009Z,22.00
2023-04-08T18:16:17.424Z,26.63
2023-04-08T18:18:45.949Z,23.97
2023-04-08T18:21:15.029Z,22.03
2023-04-08T18:23:42.876Z,21.87
2023-04-08T18:26:10.951Z,20.50
2023-04-08T18:28:40.152Z,21.00
2023-04-08T18:31:08.082Z,18.63
2023-04-08T18:33:36.298Z,19.70
2023-04-08T18:36:08.900Z,21.57
2023-04-08T18:38:36.799Z,21.13
2023-04-08T18:41:04.617Z,21.27
2023-04-08T18:43:33.204Z,20.30
2023-04-08T18:46:02.439Z,21.50
2023-04-08T18:48:30.474Z,23.37
2023-04-08T18:50:58.650Z,22.57
2023-04-08T18:53:26.422Z,21.93
2023-04-08T18:55:54.363Z,23.73
2023-04-08T18:58:22.649Z,24.03
2023-04-08T19:00:50.876Z,23.83
2023-04-08T19:03:20.180Z,24.40
2023-04-08T19:05:47.929Z,24.77
2023-04-08T19:08:15.846Z,25.23
2023-04-08T19:10:43.819Z,26.10
2023-04-08T19:13:11.657Z,24.17
2023-04-08T19:15:39.386Z,24.93
2023-04-08T19:18:07.416Z,26.13
2023-04-08T19:20:36.580Z,24.27
2023-04-08T19:23:04.368Z,25.80
2023-04-08T19:25:32.642Z,24.43
2023-04-08T19:28:00.397Z,26.40
2023-04-08T19:30:28.213Z,24.37
2023-04-08T19:32:56.154Z,25.43
2023-04-08T19:35:24.197Z,24.53
2023-04-08T19:37:53.300Z,24.60
2023-04-08T19:40:21.180Z,25.73
2023-04-08T19:42:48.906Z,24.33
2023-04-08T19:45:17.465Z,23.47
2023-04-08T19:47:45.447Z,23.37
2023-04-08T19:50:13.799Z,22.47
2023-04-08T19:52:41.712Z,21.43
2023-04-08T19:55:11.157Z,22.10
2023-04-08T19:57:39.183Z,20.67
2023-04-08T20:00:09.268Z,20.97
2023-04-08T20:02:38.390Z,21.83
2023-04-08T20:05:07.761Z,20.90
2023-04-08T20:07:35.619Z,20.67
2023-04-08T20:10:03.395Z,19.33
2023-04-08T20:12:32.719Z,19.97
2023-04-08T20:15:01.099Z,20.13
2023-04-08T20:17:29.073Z,20.30
2023-04-08T20:19:56.908Z,20.93
2023-04-08T20:22:25.600Z,21.23
2023-04-08T20:24:53.317Z,20.77
2023-04-08T20:27:21.302Z,19.33
2023-04-08T20:29:50.414Z,18.53
2023-04-08T20:32:18.673Z,20.77
2023-04-08T20:34:46.565Z,19.97
2023-04-08T20:37:14.439Z,20.40
2023-04-08T20:39:42.136Z,20.43
2023-04-08T20:42:10.106Z,19.67
2023-04-08T20:44:37.874Z,19.33
2023-04-08T20:47:06.984Z,17.93
2023-04-08T20:49:35.317Z,18.27
2023-04-08T20:52:03.093Z,18.73
2023-04-08T20:54:31.642Z,18.77
2023-04-08T20:57:00.161Z,18.10
2023-04-08T20:59:28.140Z,19.27
2023-04-08T21:01:56.029Z,18.93
2023-04-08T21:04:25.347Z,19.87
2023-04-08T21:06:53.463Z,20.13
2023-04-08T21:09:21.250Z,20.03
2023-04-08T21:11:49.044Z,20.03
2023-04-08T21:14:16.839Z,20.13
2023-04-08T21:16:44.953Z,20.63
2023-04-08T21:19:12.800Z,21.37
2023-04-08T21:21:41.964Z,21.13
2023-04-08T21:24:10.527Z,22.77
2023-04-08T21:26:38.256Z,22.00
2023-04-08T21:29:06.268Z,23.20
2023-04-08T21:31:34.696Z,21.93
2023-04-08T21:34:02.547Z,22.53
2023-04-08T21:36:31.371Z,24.57
2023-04-08T21:39:00.569Z,23.07
2023-04-08T21:41:30.288Z,20.83
2023-04-08T21:44:00.778Z,21.67
2023-04-08T21:46:28.558Z,20.40
2023-04-08T21:48:56.370Z,21.17
2023-04-08T21:51:24.309Z,20.50
2023-04-08T21:53:52.392Z,21.60
2023-04-08T21:56:22.062Z,19.53
2023-04-08T21:58:50.159Z,18.00
2023-04-08T22:01:18.275Z,21.07
2023-04-08T22:03:46.237Z,22.40
2023-04-08T22:06:25.587Z,21.63
2023-04-08T22:08:59.385Z,21.00
2023-04-08T22:11:28.584Z,19.17
2023-04-08T22:13:56.293Z,20.40
2023-04-08T22:16:24.407Z,20.03
2023-04-08T22:18:52.340Z,20.27
2023-04-08T22:21:20.935Z,20.53
2023-04-08T22:23:49.956Z,22.13
2023-04-08T22:26:17.799Z,20.97
2023-04-08T22:28:46.945Z,20.97
2023-04-08T22:31:14.861Z,21.07
2023-04-08T22:33:42.669Z,19.27
2023-04-08T22:36:10.616Z,20.93
2023-04-08T22:38:38.525Z,20.13
2023-04-08T22:41:06.366Z,20.57
2023-04-08T22:43:34.067Z,21.97
2023-04-08T22:46:03.220Z,20.50
2023-04-08T22:48:31.204Z,21.13
2023-04-08T22:50:58.994Z,21.67
2023-04-08T22:53:27.541Z,21.23
2023-04-08T22:55:55.299Z,21.23
2023-04-08T22:58:23.154Z,20.80
2023-04-08T23:00:50.954Z,21.20
2023-04-08T23:03:20.318Z,21.03
2023-04-08T23:05:48.416Z,22.67
2023-04-08T23:08:16.410Z,20.67
2023-04-08T23:10:44.203Z,21.37
2023-04-08T23:13:13.926Z,21.63
2023-04-08T23:15:41.913Z,22.47
2023-04-08T23:18:09.791Z,22.13
2023-04-08T23:20:38.926Z,23.40
2023-04-08T23:23:06.928Z,21.97
2023-04-08T23:25:36.324Z,20.37
2023-04-08T23:28:04.688Z,21.10
2023-04-08T23:30:32.426Z,21.27
2023-04-08T23:33:00.202Z,22.20
2023-04-08T23:35:27.986Z,19.57
2023-04-08T23:37:57.155Z,20.93
2023-04-08T23:40:25.231Z,20.97
2023-04-08T23:42:53.189Z,21.60
2023-04-08T23:45:20.918Z,21.73
2023-04-08T23:47:48.906Z,22.43
2023-04-08T23:50:17.036Z,22.57
2023-04-08T23:52:44.897Z,22.33
2023-04-08T23:55:14.166Z,23.07
2023-04-08T23:57:43.612Z,23.10
